sensor_id;sensor_type;location;lat;lon;timestamp;P1;durP1;ratioP1;P2;durP2;ratioP2
72406;SDS011;60396;47.550;18.828;2024-03-08T00:00:16;11.73;;;5.35;;
72406;SDS011;60396;47.550;18.828;2024-03-08T00:02:48;14.00;;;6.55;;
72406;SDS011;60396;47.550;18.828;2024-03-08T00:05:18;13.30;;;5.87;;
72406;SDS011;60396;47.550;18.828;2024-03-08T00:07:46;13.97;;;6.00;;
72406;SDS011;60396;47.550;18.828;2024-03-08T00:10:14;12.35;;;6.22;;
72406;SDS011;60396;47.550;18.828;2024-03-08T00:12:43;11.35;;;5.35;;
72406;SDS011;60396;47.550;18.828;2024-03-08T00:15:14;14.15;;;6.22;;
72406;SDS011;60396;47.550;18.828;2024-03-08T00:17:44;17.62;;;6.85;;
72406;SDS011;60396;47.550;18.828;2024-03-08T00:20:13;14.03;;;5.50;;
72406;SDS011;60396;47.550;18.828;2024-03-08T00:22:42;14.15;;;5.85;;
72406;SDS011;60396;47.550;18.828;2024-03-08T00:25:11;13.65;;;6.07;;
72406;SDS011;60396;47.550;18.828;2024-03-08T00:27:42;13.90;;;6.15;;
72406;SDS011;60396;47.550;18.828;2024-03-08T00:30:10;15.02;;;6.50;;
72406;SDS011;60396;47.550;18.828;2024-03-08T00:32:40;14.90;;;7.10;;
72406;SDS011;60396;47.550;18.828;2024-03-08T00:35:08;18.52;;;7.72;;
72406;SDS011;60396;47.550;18.828;2024-03-08T00:37:37;15.98;;;7.55;;
72406;SDS011;60396;47.550;18.828;2024-03-08T00:40:05;27.77;;;13.00;;
72406;SDS011;60396;47.550;18.828;2024-03-08T00:42:36;24.55;;;10.23;;
72406;SDS011;60396;47.550;18.828;2024-03-08T00:45:06;19.43;;;8.70;;
72406;SDS011;60396;47.550;18.828;2024-03-08T00:47:34;20.65;;;10.18;;
72406;SDS011;60396;47.550;18.828;2024-03-08T00:50:02;20.58;;;9.75;;
72406;SDS011;60396;47.550;18.828;2024-03-08T00:52:33;21.60;;;9.25;;
72406;SDS011;60396;47.550;18.828;2024-03-08T00:55:02;20.45;;;10.18;;
72406;SDS011;60396;47.550;18.828;2024-03-08T00:57:31;17.83;;;8.43;;
72406;SDS011;60396;47.550;18.828;2024-03-08T00:59:58;15.52;;;6.70;;
72406;SDS011;60396;47.550;18.828;2024-03-08T01:02:27;14.55;;;7.10;;
72406;SDS011;60396;47.550;18.828;2024-03-08T01:04:55;15.88;;;6.95;;
72406;SDS011;60396;47.550;18.828;2024-03-08T01:07:23;14.52;;;7.05;;
72406;SDS011;60396;47.550;18.828;2024-03-08T01:09:51;14.03;;;6.77;;
72406;SDS011;60396;47.550;18.828;2024-03-08T01:12:18;19.08;;;9.65;;
72406;SDS011;60396;47.550;18.828;2024-03-08T01:14:47;27.40;;;13.52;;
72406;SDS011;60396;47.550;18.828;2024-03-08T01:17:15;31.65;;;14.23;;
72406;SDS011;60396;47.550;18.828;2024-03-08T01:19:44;32.30;;;14.85;;
72406;SDS011;60396;47.550;18.828;2024-03-08T01:22:12;34.07;;;14.63;;
72406;SDS011;60396;47.550;18.828;2024-03-08T01:24:40;30.23;;;13.98;;
72406;SDS011;60396;47.550;18.828;2024-03-08T01:27:08;31.50;;;14.27;;
72406;SDS011;60396;47.550;18.828;2024-03-08T01:29:36;30.75;;;14.20;;
72406;SDS011;60396;47.550;18.828;2024-03-08T01:32:05;29.08;;;14.98;;
72406;SDS011;60396;47.550;18.828;2024-03-08T01:34:33;32.33;;;15.20;;
72406;SDS011;60396;47.550;18.828;2024-03-08T01:37:01;34.92;;;15.57;;
72406;SDS011;60396;47.550;18.828;2024-03-08T01:39:29;29.85;;;15.07;;
72406;SDS011;60396;47.550;18.828;2024-03-08T01:41:56;36.00;;;16.00;;
72406;SDS011;60396;47.550;18.828;2024-03-08T01:44:24;35.42;;;16.23;;
72406;SDS011;60396;47.550;18.828;2024-03-08T01:46:52;34.37;;;15.53;;
72406;SDS011;60396;47.550;18.828;2024-03-08T01:49:21;32.90;;;15.63;;
72406;SDS011;60396;47.550;18.828;2024-03-08T01:51:49;34.15;;;16.17;;
72406;SDS011;60396;47.550;18.828;2024-03-08T01:54:18;31.77;;;15.70;;
72406;SDS011;60396;47.550;18.828;2024-03-08T01:56:47;34.35;;;15.43;;
72406;SDS011;60396;47.550;18.828;2024-03-08T01:59:15;34.33;;;15.87;;
72406;SDS011;60396;47.550;18.828;2024-03-08T02:01:43;33.30;;;15.65;;
72406;SDS011;60396;47.550;18.828;2024-03-08T02:04:11;37.33;;;15.90;;
72406;SDS011;60396;47.550;18.828;2024-03-08T02:06:39;35.22;;;15.63;;
72406;SDS011;60396;47.550;18.828;2024-03-08T02:09:07;41.70;;;16.85;;
72406;SDS011;60396;47.550;18.828;2024-03-08T02:11:35;33.80;;;15.67;;
72406;SDS011;60396;47.550;18.828;2024-03-08T02:14:04;33.65;;;16.10;;
72406;SDS011;60396;47.550;18.828;2024-03-08T02:16:34;40.20;;;17.05;;
72406;SDS011;60396;47.550;18.828;2024-03-08T02:19:02;37.70;;;17.55;;
72406;SDS011;60396;47.550;18.828;2024-03-08T02:21:29;37.28;;;16.83;;
72406;SDS011;60396;47.550;18.828;2024-03-08T02:23:58;38.80;;;15.90;;
72406;SDS011;60396;47.550;18.828;2024-03-08T02:26:27;39.67;;;16.45;;
72406;SDS011;60396;47.550;18.828;2024-03-08T02:28:55;41.45;;;17.20;;
72406;SDS011;60396;47.550;18.828;2024-03-08T02:31:22;37.17;;;17.15;;
72406;SDS011;60396;47.550;18.828;2024-03-08T02:33:50;39.85;;;17.77;;
72406;SDS011;60396;47.550;18.828;2024-03-08T02:36:18;37.53;;;17.20;;
72406;SDS011;60396;47.550;18.828;2024-03-08T02:38:46;40.47;;;17.30;;
72406;SDS011;60396;47.550;18.828;2024-03-08T02:41:14;39.53;;;16.52;;
72406;SDS011;60396;47.550;18.828;2024-03-08T02:43:42;38.83;;;18.08;;
72406;SDS011;60396;47.550;18.828;2024-03-08T02:46:10;38.03;;;18.62;;
72406;SDS011;60396;47.550;18.828;2024-03-08T02:48:38;41.97;;;17.20;;
72406;SDS011;60396;47.550;18.828;2024-03-08T02:51:07;37.25;;;17.50;;
72406;SDS011;60396;47.550;18.828;2024-03-08T02:53:35;41.83;;;18.23;;
72406;SDS011;60396;47.550;18.828;2024-03-08T02:56:03;40.72;;;17.70;;
72406;SDS011;60396;47.550;18.828;2024-03-08T02:58:32;41.85;;;18.73;;
72406;SDS011;60396;47.550;18.828;2024-03-08T03:01:00;41.37;;;17.87;;
72406;SDS011;60396;47.550;18.828;2024-03-08T03:03:28;41.92;;;18.35;;
72406;SDS011;60396;47.550;18.828;2024-03-08T03:05:55;42.92;;;18.20;;
72406;SDS011;60396;47.550;18.828;2024-03-08T03:08:23;45.45;;;19.00;;
72406;SDS011;60396;47.550;18.828;2024-03-08T03:10:52;45.35;;;19.40;;
72406;SDS011;60396;47.550;18.828;2024-03-08T03:13:19;40.67;;;18.03;;
72406;SDS011;60396;47.550;18.828;2024-03-08T03:15:47;41.47;;;19.02;;
72406;SDS011;60396;47.550;18.828;2024-03-08T03:18:15;40.45;;;18.25;;
72406;SDS011;60396;47.550;18.828;2024-03-08T03:20:43;41.55;;;18.00;;
72406;SDS011;60396;47.550;18.828;2024-03-08T03:23:11;39.92;;;17.87;;
72406;SDS011;60396;47.550;18.828;2024-03-08T03:25:43;43.53;;;17.77;;
72406;SDS011;60396;47.550;18.828;2024-03-08T03:28:11;38.47;;;17.33;;
72406;SDS011;60396;47.550;18.828;2024-03-08T03:30:44;39.60;;;17.85;;
72406;SDS011;60396;47.550;18.828;2024-03-08T03:33:13;45.42;;;18.52;;
72406;SDS011;60396;47.550;18.828;2024-03-08T03:35:43;41.83;;;18.55;;
72406;SDS011;60396;47.550;18.828;2024-03-08T03:38:12;40.60;;;17.27;;
72406;SDS011;60396;47.550;18.828;2024-03-08T03:40:41;40.63;;;17.50;;
72406;SDS011;60396;47.550;18.828;2024-03-08T03:43:10;42.95;;;18.73;;
72406;SDS011;60396;47.550;18.828;2024-03-08T03:45:38;40.38;;;17.98;;
72406;SDS011;60396;47.550;18.828;2024-03-08T03:48:07;36.45;;;17.05;;
72406;SDS011;60396;47.550;18.828;2024-03-08T03:50:38;38.70;;;17.53;;
72406;SDS011;60396;47.550;18.828;2024-03-08T03:53:07;37.15;;;16.95;;
72406;SDS011;60396;47.550;18.828;2024-03-08T03:55:37;41.03;;;18.83;;
72406;SDS011;60396;47.550;18.828;2024-03-08T03:58:08;38.85;;;17.20;;
72406;SDS011;60396;47.550;18.828;2024-03-08T04:00:38;42.60;;;17.25;;
72406;SDS011;60396;47.550;18.828;2024-03-08T04:03:07;38.63;;;16.73;;
72406;SDS011;60396;47.550;18.828;2024-03-08T04:05:36;42.28;;;18.48;;
72406;SDS011;60396;47.550;18.828;2024-03-08T04:08:04;38.90;;;18.35;;
72406;SDS011;60396;47.550;18.828;2024-03-08T04:10:34;39.45;;;17.17;;
72406;SDS011;60396;47.550;18.828;2024-03-08T04:13:01;38.97;;;18.05;;
72406;SDS011;60396;47.550;18.828;2024-03-08T04:15:30;37.20;;;16.97;;
72406;SDS011;60396;47.550;18.828;2024-03-08T04:17:58;42.62;;;18.55;;
72406;SDS011;60396;47.550;18.828;2024-03-08T04:20:27;38.53;;;17.58;;
72406;SDS011;60396;47.550;18.828;2024-03-08T04:22:55;41.53;;;17.55;;
72406;SDS011;60396;47.550;18.828;2024-03-08T04:25:24;44.88;;;18.12;;
72406;SDS011;60396;47.550;18.828;2024-03-08T04:27:51;40.17;;;16.60;;
72406;SDS011;60396;47.550;18.828;2024-03-08T04:30:19;37.53;;;17.50;;
72406;SDS011;60396;47.550;18.828;2024-03-08T04:32:49;38.28;;;18.55;;
72406;SDS011;60396;47.550;18.828;2024-03-08T04:35:17;39.80;;;19.17;;
72406;SDS011;60396;47.550;18.828;2024-03-08T04:37:47;38.40;;;18.00;;
72406;SDS011;60396;47.550;18.828;2024-03-08T04:40:16;42.67;;;18.27;;
72406;SDS011;60396;47.550;18.828;2024-03-08T04:42:43;39.80;;;18.23;;
72406;SDS011;60396;47.550;18.828;2024-03-08T04:45:11;44.17;;;19.35;;
72406;SDS011;60396;47.550;18.828;2024-03-08T04:47:39;40.60;;;18.90;;
72406;SDS011;60396;47.550;18.828;2024-03-08T04:50:07;44.63;;;18.90;;
72406;SDS011;60396;47.550;18.828;2024-03-08T04:52:36;42.70;;;18.77;;
72406;SDS011;60396;47.550;18.828;2024-03-08T04:55:04;40.35;;;17.70;;
72406;SDS011;60396;47.550;18.828;2024-03-08T04:57:33;42.45;;;18.08;;
72406;SDS011;60396;47.550;18.828;2024-03-08T05:00:01;41.92;;;19.23;;
72406;SDS011;60396;47.550;18.828;2024-03-08T05:02:32;42.10;;;18.45;;
72406;SDS011;60396;47.550;18.828;2024-03-08T05:05:00;42.03;;;18.23;;
72406;SDS011;60396;47.550;18.828;2024-03-08T05:07:28;44.00;;;19.48;;
72406;SDS011;60396;47.550;18.828;2024-03-08T05:09:56;41.97;;;18.30;;
72406;SDS011;60396;47.550;18.828;2024-03-08T05:12:24;49.17;;;19.08;;
72406;SDS011;60396;47.550;18.828;2024-03-08T05:14:52;44.70;;;17.80;;
72406;SDS011;60396;47.550;18.828;2024-03-08T05:17:20;42.07;;;19.20;;
72406;SDS011;60396;47.550;18.828;2024-03-08T05:19:47;48.28;;;20.15;;
72406;SDS011;60396;47.550;18.828;2024-03-08T05:22:15;50.55;;;18.62;;
72406;SDS011;60396;47.550;18.828;2024-03-08T05:24:43;51.22;;;20.65;;
72406;SDS011;60396;47.550;18.828;2024-03-08T05:27:10;46.63;;;20.83;;
72406;SDS011;60396;47.550;18.828;2024-03-08T05:29:38;46.57;;;20.13;;
72406;SDS011;60396;47.550;18.828;2024-03-08T05:32:06;45.78;;;19.95;;
72406;SDS011;60396;47.550;18.828;2024-03-08T05:34:34;48.33;;;19.92;;
72406;SDS011;60396;47.550;18.828;2024-03-08T05:37:02;49.30;;;21.10;;
72406;SDS011;60396;47.550;18.828;2024-03-08T05:39:30;51.00;;;20.00;;
72406;SDS011;60396;47.550;18.828;2024-03-08T05:41:58;54.73;;;19.60;;
72406;SDS011;60396;47.550;18.828;2024-03-08T05:44:26;49.17;;;21.17;;
72406;SDS011;60396;47.550;18.828;2024-03-08T05:46:56;50.55;;;20.67;;
72406;SDS011;60396;47.550;18.828;2024-03-08T05:49:24;46.03;;;19.62;;
72406;SDS011;60396;47.550;18.828;2024-03-08T05:51:52;46.80;;;19.37;;
72406;SDS011;60396;47.550;18.828;2024-03-08T05:54:22;47.63;;;19.77;;
72406;SDS011;60396;47.550;18.828;2024-03-08T05:56:52;51.85;;;20.48;;
72406;SDS011;60396;47.550;18.828;2024-03-08T05:59:22;46.83;;;19.55;;
72406;SDS011;60396;47.550;18.828;2024-03-08T06:01:50;46.50;;;18.62;;
72406;SDS011;60396;47.550;18.828;2024-03-08T06:04:18;45.47;;;20.12;;
72406;SDS011;60396;47.550;18.828;2024-03-08T06:06:46;44.93;;;19.00;;
72406;SDS011;60396;47.550;18.828;2024-03-08T06:09:19;45.17;;;20.35;;
72406;SDS011;60396;47.550;18.828;2024-03-08T06:11:51;49.83;;;21.30;;
72406;SDS011;60396;47.550;18.828;2024-03-08T06:14:22;50.28;;;20.95;;
72406;SDS011;60396;47.550;18.828;2024-03-08T06:16:50;49.45;;;20.73;;
72406;SDS011;60396;47.550;18.828;2024-03-08T06:19:18;45.57;;;20.07;;
72406;SDS011;60396;47.550;18.828;2024-03-08T06:21:46;46.53;;;19.85;;
72406;SDS011;60396;47.550;18.828;2024-03-08T06:24:14;45.92;;;19.55;;
72406;SDS011;60396;47.550;18.828;2024-03-08T06:26:45;50.08;;;19.23;;
72406;SDS011;60396;47.550;18.828;2024-03-08T06:29:13;49.58;;;19.83;;
72406;SDS011;60396;47.550;18.828;2024-03-08T06:31:42;44.60;;;18.30;;
72406;SDS011;60396;47.550;18.828;2024-03-08T06:34:10;45.22;;;19.25;;
72406;SDS011;60396;47.550;18.828;2024-03-08T06:36:39;50.05;;;20.33;;
72406;SDS011;60396;47.550;18.828;2024-03-08T06:39:07;47.38;;;20.92;;
72406;SDS011;60396;47.550;18.828;2024-03-08T06:41:37;43.00;;;19.70;;
72406;SDS011;60396;47.550;18.828;2024-03-08T06:44:06;48.73;;;20.27;;
72406;SDS011;60396;47.550;18.828;2024-03-08T06:46:35;44.97;;;20.12;;
72406;SDS011;60396;47.550;18.828;2024-03-08T06:49:03;48.22;;;20.17;;
72406;SDS011;60396;47.550;18.828;2024-03-08T06:51:31;51.20;;;20.25;;
72406;SDS011;60396;47.550;18.828;2024-03-08T06:53:59;50.92;;;21.08;;
72406;SDS011;60396;47.550;18.828;2024-03-08T06:56:27;45.07;;;20.27;;
72406;SDS011;60396;47.550;18.828;2024-03-08T06:58:57;41.50;;;18.58;;
72406;SDS011;60396;47.550;18.828;2024-03-08T07:01:25;48.33;;;20.17;;
72406;SDS011;60396;47.550;18.828;2024-03-08T07:03:53;46.37;;;19.67;;
72406;SDS011;60396;47.550;18.828;2024-03-08T07:06:24;43.92;;;18.37;;
72406;SDS011;60396;47.550;18.828;2024-03-08T07:08:52;44.67;;;19.53;;
72406;SDS011;60396;47.550;18.828;2024-03-08T07:11:20;46.55;;;19.05;;
72406;SDS011;60396;47.550;18.828;2024-03-08T07:13:49;45.55;;;19.40;;
72406;SDS011;60396;47.550;18.828;2024-03-08T07:16:17;49.35;;;18.83;;
72406;SDS011;60396;47.550;18.828;2024-03-08T07:18:45;48.30;;;19.42;;
72406;SDS011;60396;47.550;18.828;2024-03-08T07:21:14;45.60;;;19.03;;
72406;SDS011;60396;47.550;18.828;2024-03-08T07:23:42;42.58;;;18.05;;
72406;SDS011;60396;47.550;18.828;2024-03-08T07:26:42;42.80;;;19.17;;
72406;SDS011;60396;47.550;18.828;2024-03-08T07:29:10;40.78;;;17.98;;
72406;SDS011;60396;47.550;18.828;2024-03-08T07:31:38;42.47;;;18.75;;
72406;SDS011;60396;47.550;18.828;2024-03-08T07:34:09;40.97;;;17.53;;
72406;SDS011;60396;47.550;18.828;2024-03-08T07:36:37;40.70;;;17.42;;
72406;SDS011;60396;47.550;18.828;2024-03-08T07:39:04;39.30;;;18.33;;
72406;SDS011;60396;47.550;18.828;2024-03-08T07:41:37;41.28;;;17.92;;
72406;SDS011;60396;47.550;18.828;2024-03-08T07:44:07;44.05;;;17.70;;
72406;SDS011;60396;47.550;18.828;2024-03-08T07:46:35;42.27;;;17.33;;
72406;SDS011;60396;47.550;18.828;2024-03-08T07:49:04;36.25;;;17.70;;
72406;SDS011;60396;47.550;18.828;2024-03-08T07:51:32;42.03;;;17.87;;
72406;SDS011;60396;47.550;18.828;2024-03-08T07:54:02;36.63;;;16.70;;
72406;SDS011;60396;47.550;18.828;2024-03-08T07:56:32;38.08;;;17.65;;
72406;SDS011;60396;47.550;18.828;2024-03-08T07:59:00;35.30;;;16.57;;
72406;SDS011;60396;47.550;18.828;2024-03-08T08:01:28;38.08;;;16.25;;
72406;SDS011;60396;47.550;18.828;2024-03-08T08:03:56;34.38;;;15.90;;
72406;SDS011;60396;47.550;18.828;2024-03-08T08:06:24;35.30;;;16.23;;
72406;SDS011;60396;47.550;18.828;2024-03-08T08:08:53;33.65;;;14.85;;
72406;SDS011;60396;47.550;18.828;2024-03-08T08:11:21;35.17;;;14.40;;
72406;SDS011;60396;47.550;18.828;2024-03-08T08:13:48;35.42;;;16.27;;
72406;SDS011;60396;47.550;18.828;2024-03-08T08:16:16;31.95;;;15.00;;
72406;SDS011;60396;47.550;18.828;2024-03-08T08:18:44;36.72;;;15.82;;
72406;SDS011;60396;47.550;18.828;2024-03-08T08:21:13;41.75;;;17.58;;
72406;SDS011;60396;47.550;18.828;2024-03-08T08:23:41;39.17;;;15.43;;
72406;SDS011;60396;47.550;18.828;2024-03-08T08:26:10;33.58;;;14.50;;
72406;SDS011;60396;47.550;18.828;2024-03-08T08:28:39;42.33;;;16.92;;
72406;SDS011;60396;47.550;18.828;2024-03-08T08:31:08;35.85;;;15.57;;
72406;SDS011;60396;47.550;18.828;2024-03-08T08:33:36;34.92;;;15.15;;
72406;SDS011;60396;47.550;18.828;2024-03-08T08:36:04;40.20;;;15.13;;
72406;SDS011;60396;47.550;18.828;2024-03-08T08:38:33;39.40;;;15.52;;
72406;SDS011;60396;47.550;18.828;2024-03-08T08:41:00;32.28;;;14.05;;
72406;SDS011;60396;47.550;18.828;2024-03-08T08:43:30;37.33;;;16.17;;
72406;SDS011;60396;47.550;18.828;2024-03-08T08:45:58;32.13;;;13.95;;
72406;SDS011;60396;47.550;18.828;2024-03-08T08:48:25;37.03;;;15.40;;
72406;SDS011;60396;47.550;18.828;2024-03-08T08:50:55;35.88;;;15.75;;
72406;SDS011;60396;47.550;18.828;2024-03-08T08:53:25;38.15;;;16.80;;
72406;SDS011;60396;47.550;18.828;2024-03-08T08:55:53;35.13;;;16.45;;
72406;SDS011;60396;47.550;18.828;2024-03-08T08:58:21;39.20;;;17.12;;
72406;SDS011;60396;47.550;18.828;2024-03-08T09:00:50;34.23;;;15.37;;
72406;SDS011;60396;47.550;18.828;2024-03-08T09:03:17;36.72;;;15.15;;
72406;SDS011;60396;47.550;18.828;2024-03-08T09:05:45;36.83;;;16.48;;
72406;SDS011;60396;47.550;18.828;2024-03-08T09:08:13;32.53;;;15.52;;
72406;SDS011;60396;47.550;18.828;2024-03-08T09:10:41;33.75;;;15.20;;
72406;SDS011;60396;47.550;18.828;2024-03-08T09:13:10;35.57;;;15.80;;
72406;SDS011;60396;47.550;18.828;2024-03-08T09:15:51;42.58;;;16.92;;
72406;SDS011;60396;47.550;18.828;2024-03-08T09:18:20;39.55;;;14.98;;
72406;SDS011;60396;47.550;18.828;2024-03-08T09:20:48;40.10;;;16.35;;
72406;SDS011;60396;47.550;18.828;2024-03-08T09:23:16;37.85;;;16.40;;
72406;SDS011;60396;47.550;18.828;2024-03-08T09:25:44;38.93;;;17.07;;
72406;SDS011;60396;47.550;18.828;2024-03-08T09:28:14;35.28;;;15.90;;
72406;SDS011;60396;47.550;18.828;2024-03-08T09:30:44;33.35;;;14.95;;
72406;SDS011;60396;47.550;18.828;2024-03-08T09:33:25;39.72;;;17.33;;
72406;SDS011;60396;47.550;18.828;2024-03-08T09:35:54;40.03;;;17.12;;
72406;SDS011;60396;47.550;18.828;2024-03-08T09:38:26;41.67;;;18.80;;
72406;SDS011;60396;47.550;18.828;2024-03-08T09:40:53;38.58;;;17.73;;
72406;SDS011;60396;47.550;18.828;2024-03-08T09:43:24;41.00;;;17.02;;
72406;SDS011;60396;47.550;18.828;2024-03-08T09:45:52;45.03;;;19.52;;
72406;SDS011;60396;47.550;18.828;2024-03-08T09:48:20;41.50;;;17.90;;
72406;SDS011;60396;47.550;18.828;2024-03-08T09:50:49;42.23;;;18.00;;
72406;SDS011;60396;47.550;18.828;2024-03-08T09:53:17;47.42;;;18.40;;
72406;SDS011;60396;47.550;18.828;2024-03-08T09:55:45;45.83;;;17.75;;
72406;SDS011;60396;47.550;18.828;2024-03-08T09:58:13;41.97;;;17.33;;
72406;SDS011;60396;47.550;18.828;2024-03-08T10:01:03;35.85;;;15.93;;
72406;SDS011;60396;47.550;18.828;2024-03-08T10:03:34;34.90;;;15.97;;
72406;SDS011;60396;47.550;18.828;2024-03-08T10:06:02;33.17;;;14.32;;
72406;SDS011;60396;47.550;18.828;2024-03-08T10:08:33;31.02;;;14.65;;
72406;SDS011;60396;47.550;18.828;2024-03-08T10:11:02;29.40;;;13.20;;
72406;SDS011;60396;47.550;18.828;2024-03-08T10:13:29;28.87;;;13.30;;
72406;SDS011;60396;47.550;18.828;2024-03-08T10:15:59;31.93;;;14.77;;
72406;SDS011;60396;47.550;18.828;2024-03-08T10:18:27;27.73;;;13.52;;
72406;SDS011;60396;47.550;18.828;2024-03-08T10:21:02;37.65;;;15.05;;
72406;SDS011;60396;47.550;18.828;2024-03-08T10:23:34;35.03;;;15.25;;
72406;SDS011;60396;47.550;18.828;2024-03-08T10:26:09;34.28;;;15.43;;
72406;SDS011;60396;47.550;18.828;2024-03-08T10:28:42;36.80;;;14.87;;
72406;SDS011;60396;47.550;18.828;2024-03-08T10:31:12;35.70;;;16.33;;
72406;SDS011;60396;47.550;18.828;2024-03-08T10:33:48;33.80;;;15.32;;
72406;SDS011;60396;47.550;18.828;2024-03-08T10:36:16;31.20;;;14.57;;
72406;SDS011;60396;47.550;18.828;2024-03-08T10:38:46;27.15;;;12.98;;
72406;SDS011;60396;47.550;18.828;2024-03-08T10:41:16;29.47;;;13.03;;
72406;SDS011;60396;47.550;18.828;2024-03-08T10:49:00;26.55;;;13.27;;
72406;SDS011;60396;47.550;18.828;2024-03-08T10:51:30;33.90;;;14.45;;
72406;SDS011;60396;47.550;18.828;2024-03-08T10:53:58;33.33;;;14.50;;
72406;SDS011;60396;47.550;18.828;2024-03-08T10:56:27;24.10;;;11.32;;
72406;SDS011;60396;47.550;18.828;2024-03-08T10:58:55;31.15;;;13.85;;
72406;SDS011;60396;47.550;18.828;2024-03-08T11:01:23;31.02;;;13.07;;
72406;SDS011;60396;47.550;18.828;2024-03-08T11:03:53;31.90;;;14.60;;
72406;SDS011;60396;47.550;18.828;2024-03-08T11:06:30;32.57;;;13.90;;
72406;SDS011;60396;47.550;18.828;2024-03-08T11:09:28;30.02;;;14.05;;
72406;SDS011;60396;47.550;18.828;2024-03-08T11:14:53;30.58;;;14.38;;
72406;SDS011;60396;47.550;18.828;2024-03-08T11:19:56;32.10;;;14.20;;
72406;SDS011;60396;47.550;18.828;2024-03-08T11:22:29;30.20;;;14.45;;
72406;SDS011;60396;47.550;18.828;2024-03-08T11:24:59;34.95;;;14.93;;
72406;SDS011;60396;47.550;18.828;2024-03-08T11:27:30;30.10;;;14.43;;
72406;SDS011;60396;47.550;18.828;2024-03-08T11:29:59;29.67;;;14.15;;
72406;SDS011;60396;47.550;18.828;2024-03-08T11:32:36;32.30;;;13.80;;
72406;SDS011;60396;47.550;18.828;2024-03-08T11:35:06;36.78;;;15.23;;
72406;SDS011;60396;47.550;18.828;2024-03-08T11:37:45;31.10;;;14.75;;
72406;SDS011;60396;47.550;18.828;2024-03-08T11:40:13;33.83;;;14.38;;
72406;SDS011;60396;47.550;18.828;2024-03-08T11:42:47;30.65;;;14.52;;
72406;SDS011;60396;47.550;18.828;2024-03-08T11:45:16;35.30;;;16.07;;
72406;SDS011;60396;47.550;18.828;2024-03-08T11:47:45;33.60;;;15.70;;
72406;SDS011;60396;47.550;18.828;2024-03-08T11:50:18;36.28;;;16.25;;
72406;SDS011;60396;47.550;18.828;2024-03-08T11:52:48;35.60;;;15.00;;
72406;SDS011;60396;47.550;18.828;2024-03-08T11:55:17;37.53;;;15.77;;
72406;SDS011;60396;47.550;18.828;2024-03-08T11:57:48;45.37;;;18.90;;
72406;SDS011;60396;47.550;18.828;2024-03-08T12:00:18;34.35;;;17.05;;
72406;SDS011;60396;47.550;18.828;2024-03-08T12:03:02;37.65;;;17.27;;
72406;SDS011;60396;47.550;18.828;2024-03-08T12:05:31;38.97;;;17.45;;
72406;SDS011;60396;47.550;18.828;2024-03-08T12:08:04;40.70;;;18.90;;
72406;SDS011;60396;47.550;18.828;2024-03-08T12:10:36;36.50;;;17.53;;
72406;SDS011;60396;47.550;18.828;2024-03-08T12:13:06;40.05;;;17.52;;
72406;SDS011;60396;47.550;18.828;2024-03-08T12:15:40;40.63;;;17.58;;
72406;SDS011;60396;47.550;18.828;2024-03-08T12:18:08;37.90;;;17.98;;
72406;SDS011;60396;47.550;18.828;2024-03-08T12:20:38;38.95;;;18.62;;
72406;SDS011;60396;47.550;18.828;2024-03-08T12:23:07;40.43;;;17.50;;
72406;SDS011;60396;47.550;18.828;2024-03-08T12:25:41;36.05;;;16.70;;
72406;SDS011;60396;47.550;18.828;2024-03-08T12:28:10;37.78;;;17.42;;
72406;SDS011;60396;47.550;18.828;2024-03-08T12:30:46;37.53;;;16.40;;
72406;SDS011;60396;47.550;18.828;2024-03-08T12:33:15;35.65;;;16.62;;
72406;SDS011;60396;47.550;18.828;2024-03-08T12:35:54;35.90;;;16.20;;
72406;SDS011;60396;47.550;18.828;2024-03-08T12:38:24;37.22;;;16.70;;
72406;SDS011;60396;47.550;18.828;2024-03-08T12:41:00;33.30;;;16.10;;
72406;SDS011;60396;47.550;18.828;2024-03-08T12:43:32;30.52;;;14.35;;
72406;SDS011;60396;47.550;18.828;2024-03-08T12:46:01;30.00;;;14.38;;
72406;SDS011;60396;47.550;18.828;2024-03-08T12:48:36;30.60;;;14.13;;
72406;SDS011;60396;47.550;18.828;2024-03-08T12:51:08;29.27;;;14.27;;
72406;SDS011;60396;47.550;18.828;2024-03-08T12:53:36;30.12;;;15.10;;
72406;SDS011;60396;47.550;18.828;2024-03-08T12:56:03;28.83;;;13.57;;
72406;SDS011;60396;47.550;18.828;2024-03-08T12:58:35;31.95;;;14.82;;
72406;SDS011;60396;47.550;18.828;2024-03-08T13:01:03;28.70;;;13.83;;
72406;SDS011;60396;47.550;18.828;2024-03-08T13:03:35;28.58;;;14.05;;
72406;SDS011;60396;47.550;18.828;2024-03-08T13:06:04;27.17;;;12.55;;
72406;SDS011;60396;47.550;18.828;2024-03-08T13:08:36;26.05;;;11.88;;
72406;SDS011;60396;47.550;18.828;2024-03-08T13:11:07;27.33;;;13.07;;
72406;SDS011;60396;47.550;18.828;2024-03-08T13:13:40;20.80;;;11.10;;
72406;SDS011;60396;47.550;18.828;2024-03-08T13:16:08;26.17;;;12.43;;
72406;SDS011;60396;47.550;18.828;2024-03-08T13:18:36;21.45;;;11.73;;
72406;SDS011;60396;47.550;18.828;2024-03-08T13:21:04;24.17;;;11.95;;
72406;SDS011;60396;47.550;18.828;2024-03-08T13:23:33;24.20;;;12.35;;
72406;SDS011;60396;47.550;18.828;2024-03-08T13:26:13;26.97;;;12.97;;
72406;SDS011;60396;47.550;18.828;2024-03-08T13:31:14;35.20;;;16.90;;
72406;SDS011;60396;47.550;18.828;2024-03-08T13:33:42;35.13;;;16.50;;
72406;SDS011;60396;47.550;18.828;2024-03-08T13:36:13;33.08;;;16.00;;
72406;SDS011;60396;47.550;18.828;2024-03-08T13:38:47;35.27;;;16.67;;
72406;SDS011;60396;47.550;18.828;2024-03-08T13:41:16;36.60;;;16.00;;
72406;SDS011;60396;47.550;18.828;2024-03-08T13:43:47;39.47;;;18.10;;
72406;SDS011;60396;47.550;18.828;2024-03-08T13:46:18;33.50;;;16.12;;
72406;SDS011;60396;47.550;18.828;2024-03-08T13:48:46;33.10;;;16.55;;
72406;SDS011;60396;47.550;18.828;2024-03-08T13:51:15;38.27;;;16.70;;
72406;SDS011;60396;47.550;18.828;2024-03-08T13:53:45;37.53;;;14.60;;
72406;SDS011;60396;47.550;18.828;2024-03-08T13:56:13;35.13;;;15.52;;
72406;SDS011;60396;47.550;18.828;2024-03-08T13:58:42;32.50;;;15.57;;
72406;SDS011;60396;47.550;18.828;2024-03-08T14:01:11;28.45;;;14.10;;
72406;SDS011;60396;47.550;18.828;2024-03-08T14:03:40;31.77;;;14.40;;
72406;SDS011;60396;47.550;18.828;2024-03-08T14:06:09;30.58;;;14.90;;
72406;SDS011;60396;47.550;18.828;2024-03-08T14:08:52;29.00;;;15.50;;
72406;SDS011;60396;47.550;18.828;2024-03-08T14:11:21;33.03;;;15.88;;
72406;SDS011;60396;47.550;18.828;2024-03-08T14:13:51;32.88;;;16.05;;
72406;SDS011;60396;47.550;18.828;2024-03-08T14:16:19;29.23;;;15.80;;
72406;SDS011;60396;47.550;18.828;2024-03-08T14:18:48;31.02;;;16.15;;
72406;SDS011;60396;47.550;18.828;2024-03-08T14:21:15;30.30;;;14.70;;
72406;SDS011;60396;47.550;18.828;2024-03-08T14:23:45;35.38;;;15.98;;
72406;SDS011;60396;47.550;18.828;2024-03-08T14:26:12;32.60;;;16.55;;
72406;SDS011;60396;47.550;18.828;2024-03-08T14:28:40;38.40;;;16.67;;
72406;SDS011;60396;47.550;18.828;2024-03-08T14:31:08;33.17;;;16.50;;
72406;SDS011;60396;47.550;18.828;2024-03-08T14:33:38;32.00;;;16.00;;
72406;SDS011;60396;47.550;18.828;2024-03-08T14:36:06;32.88;;;15.35;;